createdAt,value
2023-04-22T00:00:09.467Z,96831.48
2023-04-22T00:02:59.494Z,96834.77
2023-04-22T00:05:27.989Z,96835.42
2023-04-22T00:07:56.138Z,96837.77
2023-04-22T00:10:24.296Z,96841.41
2023-04-22T00:12:52.188Z,96845.94
2023-04-22T00:15:22.082Z,96848.91
2023-04-22T00:17:50.164Z,96850.27
2023-04-22T00:20:23.971Z,96856.05
2023-04-22T00:22:51.948Z,96860.31
2023-04-22T00:25:20.122Z,96857.50
2023-04-22T00:27:48.406Z,96856.30
2023-04-22T00:30:16.483Z,96859.96
2023-04-22T00:32:44.588Z,96859.88
2023-04-22T00:35:12.635Z,96860.85
2023-04-22T00:37:42.650Z,96857.70
2023-04-22T00:40:12.173Z,96857.14
2023-04-22T00:42:41.680Z,96859.23
2023-04-22T00:45:11.286Z,96852.43
2023-04-22T00:47:39.283Z,96844.46
2023-04-22T00:50:11.433Z,96851.84
2023-04-22T00:52:39.520Z,96849.55
2023-04-22T00:55:08.433Z,96844.28
2023-04-22T00:57:37.504Z,96849.05
2023-04-22T01:00:07.010Z,96850.65
2023-04-22T01:02:34.983Z,96855.31
2023-04-22T01:05:04.166Z,96857.36
2023-04-22T01:07:32.168Z,96855.48
2023-04-22T01:10:00.442Z,96855.23
2023-04-22T01:12:28.313Z,96856.46
2023-04-22T01:14:57.556Z,96855.70
2023-04-22T01:17:26.310Z,96857.70
2023-04-22T01:19:55.830Z,96858.60
2023-04-22T01:22:26.339Z,96861.46
2023-04-22T01:24:55.142Z,96858.64
2023-04-22T01:27:24.241Z,96856.04
2023-04-22T01:29:52.628Z,96856.87
2023-04-22T01:32:21.393Z,96856.83
2023-04-22T01:34:49.368Z,96858.48
2023-04-22T01:37:19.530Z,96862.23
2023-04-22T01:39:48.303Z,96861.75
2023-04-22T01:42:16.376Z,96865.38
2023-04-22T01:44:44.874Z,96866.32
2023-04-22T01:47:13.782Z,96864.65
2023-04-22T01:49:42.137Z,96867.98
2023-04-22T01:52:11.043Z,96867.55
2023-04-22T01:54:39.116Z,96867.25
2023-04-22T01:57:10.259Z,96869.02
2023-04-22T01:59:39.097Z,96870.31
2023-04-22T02:02:07.646Z,96868.20
2023-04-22T02:04:36.068Z,96871.96
2023-04-22T02:07:04.107Z,96867.60
2023-04-22T02:09:34.116Z,96868.04
2023-04-22T02:12:03.222Z,96868.98
2023-04-22T02:14:31.197Z,96867.29
2023-04-22T02:17:05.020Z,96868.09
2023-04-22T02:19:33.312Z,96870.95
2023-04-22T02:22:05.668Z,96874.14
2023-04-22T02:24:33.504Z,96873.48
2023-04-22T02:27:01.814Z,96874.04
2023-04-22T02:29:32.579Z,96872.37
2023-04-22T02:32:01.155Z,96872.10
2023-04-22T02:34:29.646Z,96871.27
2023-04-22T02:36:57.607Z,96868.03
2023-04-22T02:39:25.983Z,96869.91
2023-04-22T02:41:54.782Z,96866.23
2023-04-22T02:44:23.175Z,96869.00
2023-04-22T02:46:51.175Z,96870.69
2023-04-22T02:49:19.239Z,96872.27
2023-04-22T02:51:47.313Z,96871.55
2023-04-22T02:54:15.690Z,96869.97
2023-04-22T02:56:43.548Z,96865.38
2023-04-22T02:59:11.828Z,96869.67
2023-04-22T03:01:40.012Z,96869.63
2023-04-22T03:04:09.646Z,96872.31
2023-04-22T03:06:37.621Z,96875.88
2023-04-22T03:09:06.785Z,96881.54
2023-04-22T03:11:34.970Z,96880.93
2023-04-22T03:14:04.885Z,96881.38
2023-04-22T03:16:34.331Z,96876.69
2023-04-22T03:19:05.051Z,96880.22
2023-04-22T03:21:33.124Z,96879.43
2023-04-22T03:24:03.042Z,96885.45
2023-04-22T03:26:33.536Z,96885.66
2023-04-22T03:29:02.462Z,96887.16
2023-04-22T03:31:30.891Z,96886.80
2023-04-22T03:34:00.158Z,96887.94
2023-04-22T03:36:31.610Z,96888.52
2023-04-22T03:38:59.681Z,96889.16
2023-04-22T03:41:29.190Z,96889.11
2023-04-22T03:43:58.931Z,96890.45
2023-04-22T03:46:28.577Z,96895.58
2023-04-22T03:49:02.440Z,96898.23
2023-04-22T03:51:34.052Z,96899.17
2023-04-22T03:54:05.020Z,96901.81
2023-04-22T03:56:34.735Z,96901.10
2023-04-22T03:59:03.126Z,96907.07
2023-04-22T04:01:31.252Z,96911.89
2023-04-22T04:04:02.198Z,96910.94
2023-04-22T04:06:39.520Z,96909.85
2023-04-22T04:09:07.850Z,96910.06
2023-04-22T04:11:36.183Z,96913.89
2023-04-22T04:14:04.981Z,96912.61
2023-04-22T04:16:46.565Z,96916.27
2023-04-22T04:19:25.309Z,96920.95
2023-04-22T04:21:54.382Z,96924.69
2023-04-22T04:24:22.975Z,96924.62
2023-04-22T04:26:52.173Z,96925.05
2023-04-22T04:29:23.968Z,96927.88
2023-04-22T04:32:03.480Z,96928.07
2023-04-22T04:34:34.519Z,96929.91
2023-04-22T04:37:03.735Z,96933.67
2023-04-22T04:39:39.592Z,96939.95
2023-04-22T04:42:08.562Z,96944.33
2023-04-22T04:44:42.735Z,96941.81
2023-04-22T04:47:13.228Z,96946.16
2023-04-22T04:49:41.580Z,96940.89
2023-04-22T04:52:11.986Z,96946.60
2023-04-22T04:54:40.599Z,96949.11
2023-04-22T04:57:10.221Z,96949.16
2023-04-22T04:59:38.957Z,96948.66
2023-04-22T05:02:07.966Z,96952.16
2023-04-22T05:04:36.684Z,96954.61
2023-04-22T05:07:05.406Z,96955.00
2023-04-22T05:09:37.778Z,96957.40
2023-04-22T05:12:06.468Z,96960.16
2023-04-22T05:14:35.059Z,96958.42
2023-04-22T05:17:03.443Z,96958.06
2023-04-22T05:19:31.515Z,96956.66
2023-04-22T05:21:59.903Z,96956.74
2023-04-22T05:24:27.798Z,96958.30
2023-04-22T05:26:57.598Z,96959.09
2023-04-22T05:29:25.778Z,96958.30
2023-04-22T05:31:53.974Z,96956.20
2023-04-22T05:34:22.136Z,96960.77
2023-04-22T05:36:51.223Z,96958.08
2023-04-22T05:39:19.301Z,96956.40
2023-04-22T05:41:47.687Z,96956.83
2023-04-22T05:44:17.689Z,96959.66
2023-04-22T05:46:45.788Z,96961.17
2023-04-22T05:49:14.152Z,96963.91
2023-04-22T05:52:18.889Z,96964.96
2023-04-22T05:55:18.993Z,96961.23
2023-04-22T05:57:46.959Z,96961.04
2023-04-22T06:00:40.528Z,96961.14
2023-04-22T06:03:18.129Z,96957.80
2023-04-22T06:05:46.733Z,96958.16
2023-04-22T06:08:14.864Z,96959.13
2023-04-22T06:10:42.702Z,96960.81
2023-04-22T06:13:12.153Z,96960.61
2023-04-22T06:15:40.155Z,96962.45
2023-04-22T06:18:08.351Z,96964.23
2023-04-22T06:20:36.690Z,96965.95
2023-04-22T06:23:05.479Z,96965.55
2023-04-22T06:25:33.400Z,96963.56
2023-04-22T06:28:01.578Z,96967.61
2023-04-22T06:30:29.804Z,96966.35
2023-04-22T06:32:58.069Z,96967.31
2023-04-22T06:35:26.989Z,96969.30
2023-04-22T06:37:57.016Z,96967.79
2023-04-22T06:40:28.777Z,96970.80
2023-04-22T06:43:07.599Z,96972.06
2023-04-22T06:46:08.243Z,96970.90
2023-04-22T06:49:02.647Z,96968.46
2023-04-22T06:51:33.634Z,96965.91
2023-04-22T06:54:04.268Z,96967.19
2023-04-22T06:56:32.558Z,96963.75
2023-04-22T06:59:00.828Z,96965.02
2023-04-22T07:01:30.612Z,96963.80
2023-04-22T07:04:01.826Z,96960.77
2023-04-22T07:06:30.167Z,96963.20
2023-04-22T07:08:58.247Z,96964.12
2023-04-22T07:11:27.887Z,96966.21
2023-04-22T07:14:03.525Z,96965.66
2023-04-22T07:16:31.706Z,96968.96
2023-04-22T07:18:59.765Z,96969.83
2023-04-22T07:21:27.837Z,96967.28
2023-04-22T07:23:55.722Z,96970.35
2023-04-22T07:26:23.791Z,96971.44
2023-04-22T07:28:52.066Z,96971.42
2023-04-22T07:31:19.999Z,96970.00
2023-04-22T07:33:48.100Z,96970.34
2023-04-22T07:36:16.198Z,96967.77
2023-04-22T07:38:44.175Z,96971.54
2023-04-22T07:41:12.456Z,96967.90
2023-04-22T07:43:40.323Z,96966.05
2023-04-22T07:46:08.354Z,96964.64
2023-04-22T07:48:36.887Z,96968.54
2023-04-22T07:51:05.103Z,96968.54
2023-04-22T07:53:33.042Z,96967.48
2023-04-22T07:56:02.223Z,96965.25
2023-04-22T07:58:30.527Z,96966.60
2023-04-22T08:00:58.431Z,96965.04
2023-04-22T08:03:26.585Z,96961.66
2023-04-22T08:05:56.860Z,96961.27
2023-04-22T08:08:25.247Z,96963.82
2023-04-22T08:10:53.260Z,96955.99
2023-04-22T08:13:21.353Z,96956.05
2023-04-22T08:15:49.357Z,96958.98
2023-04-22T08:18:17.302Z,96957.42
2023-04-22T08:20:46.401Z,96961.62
2023-04-22T08:23:14.464Z,96952.95
2023-04-22T08:25:42.649Z,96953.15
2023-04-22T08:28:11.247Z,96950.27
2023-04-22T08:30:39.369Z,96945.92
2023-04-22T08:33:07.289Z,96947.98
2023-04-22T08:35:36.287Z,96951.21
2023-04-22T08:38:04.258Z,96951.90
2023-04-22T08:40:32.100Z,96954.30
2023-04-22T08:42:59.953Z,96955.70
2023-04-22T08:45:28.482Z,96953.14
2023-04-22T08:47:57.443Z,96952.58
2023-04-22T08:50:26.380Z,96950.23
2023-04-22T08:52:54.368Z,96948.63
2023-04-22T08:55:22.335Z,96947.84
2023-04-22T08:57:50.921Z,96948.46
2023-04-22T09:00:19.503Z,96944.61
2023-04-22T09:02:48.481Z,96945.27
2023-04-22T09:05:16.677Z,96945.42
2023-04-22T09:07:45.076Z,96947.27
2023-04-22T09:10:13.071Z,96945.65
2023-04-22T09:12:41.366Z,96947.48
2023-04-22T09:15:10.135Z,96948.12
2023-04-22T09:17:39.417Z,96947.52
2023-04-22T09:20:08.978Z,96945.91
2023-04-22T09:22:38.844Z,96942.55
2023-04-22T09:25:17.596Z,96947.90
2023-04-22T09:27:49.686Z,96944.20
2023-04-22T09:30:20.182Z,96941.37
2023-04-22T09:33:14.444Z,96935.49
2023-04-22T09:35:43.215Z,96931.26
2023-04-22T09:38:13.265Z,96939.23
2023-04-22T09:40:45.254Z,96940.33
2023-04-22T09:43:21.280Z,96937.13
2023-04-22T09:45:49.390Z,96935.56
2023-04-22T09:48:20.510Z,96935.34
2023-04-22T09:50:50.331Z,96928.58
2023-04-22T09:53:19.540Z,96932.59
2023-04-22T09:55:51.898Z,96934.84
2023-04-22T09:58:20.847Z,96934.78
2023-04-22T10:00:54.410Z,96932.32
2023-04-22T10:03:22.630Z,96926.14
2023-04-22T10:05:51.166Z,96925.54
2023-04-22T10:08:19.021Z,96925.38
2023-04-22T10:10:47.124Z,96925.28
2023-04-22T10:13:15.190Z,96923.05
2023-04-22T10:15:46.232Z,96921.27
2023-04-22T10:18:17.997Z,96917.01
2023-04-22T10:20:46.682Z,96910.90
2023-04-22T10:23:16.075Z,96913.39
2023-04-22T10:25:47.443Z,96911.04
2023-04-22T10:28:18.888Z,96910.52
2023-04-22T10:30:46.920Z,96911.45
2023-04-22T10:33:21.459Z,96910.23
2023-04-22T10:36:08.825Z,96910.84
2023-04-22T10:38:36.886Z,96911.20
2023-04-22T10:41:04.917Z,96910.63
2023-04-22T10:43:41.842Z,96911.01
2023-04-22T10:46:28.373Z,96913.57
2023-04-22T10:48:57.028Z,96912.77
2023-04-22T10:51:38.722Z,96915.60
2023-04-22T10:54:30.604Z,96911.20
2023-04-22T10:57:22.907Z,96913.02
2023-04-22T11:02:24.174Z,96903.89
2023-04-22T11:04:55.372Z,96904.24
2023-04-22T11:07:30.926Z,96908.17
2023-04-22T11:10:00.245Z,96905.65
2023-04-22T11:12:42.245Z,96905.02
2023-04-22T11:15:17.352Z,96902.63
2023-04-22T11:17:48.460Z,96898.53
2023-04-22T11:20:21.061Z,96900.59
2023-04-22T11:22:51.208Z,96898.13
2023-04-22T11:25:19.285Z,96897.81
2023-04-22T11:27:47.925Z,96892.59
2023-04-22T11:30:20.853Z,96894.71
2023-04-22T11:32:50.905Z,96894.83
2023-04-22T11:35:20.297Z,96894.02
2023-04-22T11:37:52.263Z,96890.77
2023-04-22T11:40:31.160Z,96886.59
2023-04-22T11:43:01.123Z,96890.85
2023-04-22T11:45:30.280Z,96886.02
2023-04-22T11:47:58.845Z,96889.42
2023-04-22T11:50:29.632Z,96890.20
2023-04-22T11:52:57.908Z,96885.79
2023-04-22T11:55:34.995Z,96884.10
2023-04-22T11:58:09.933Z,96880.43
2023-04-22T12:00:40.936Z,96885.71
2023-04-22T12:03:09.098Z,96885.70
2023-04-22T12:05:37.488Z,96879.92
2023-04-22T12:08:10.786Z,96879.19
2023-04-22T12:10:42.438Z,96879.67
2023-04-22T12:13:12.727Z,96879.45
2023-04-22T12:15:42.122Z,96878.58
2023-04-22T12:18:10.598Z,96872.02
2023-04-22T12:20:40.116Z,96867.81
2023-04-22T12:23:17.048Z,96866.11
2023-04-22T12:25:44.972Z,96867.54
2023-04-22T12:28:12.942Z,96861.89
2023-04-22T12:30:40.920Z,96860.52
2023-04-22T12:33:09.608Z,96858.85
2023-04-22T12:35:37.480Z,96854.63
2023-04-22T12:38:05.312Z,96859.30
2023-04-22T12:40:33.126Z,96854.11
2023-04-22T12:43:01.298Z,96852.80
2023-04-22T12:45:29.373Z,96848.47
2023-04-22T12:47:58.314Z,96847.58
2023-04-22T12:50:26.351Z,96849.09
2023-04-22T12:52:55.050Z,96851.35
2023-04-22T12:55:23.130Z,96848.41
2023-04-22T12:57:52.250Z,96852.29
2023-04-22T13:00:21.781Z,96847.24
2023-04-22T13:02:50.074Z,96844.65
2023-04-22T13:05:18.702Z,96844.30
2023-04-22T13:07:50.748Z,96840.40
2023-04-22T13:10:28.644Z,96839.73
2023-04-22T13:13:06.441Z,96836.61
2023-04-22T13:15:44.520Z,96835.50
2023-04-22T13:18:12.490Z,96833.24
2023-04-22T13:20:41.951Z,96834.48
2023-04-22T13:23:10.655Z,96833.35
2023-04-22T13:25:38.669Z,96831.17
2023-04-22T13:28:06.582Z,96830.05
2023-04-22T13:30:34.409Z,96830.31
2023-04-22T13:33:02.437Z,96828.71
2023-04-22T13:35:30.824Z,96825.70
2023-04-22T13:37:59.026Z,96826.55
2023-04-22T13:40:27.504Z,96828.32
2023-04-22T13:42:55.579Z,96826.70
2023-04-22T13:45:23.536Z,96823.92
2023-04-22T13:47:52.374Z,96823.16
2023-04-22T13:50:20.618Z,96824.14
2023-04-22T13:52:48.592Z,96820.84
2023-04-22T13:55:16.745Z,96822.26
2023-04-22T13:57:45.984Z,96821.60
2023-04-22T14:00:14.147Z,96818.70
2023-04-22T14:02:42.197Z,96818.75
2023-04-22T14:05:11.222Z,96821.92
2023-04-22T14:07:39.088Z,96821.19
2023-04-22T14:10:08.645Z,96823.41
2023-04-22T14:12:37.197Z,96827.87
2023-04-22T14:15:07.121Z,96821.50
2023-04-22T14:17:34.989Z,96825.27
2023-04-22T14:20:06.982Z,96827.18
2023-04-22T14:22:34.821Z,96827.17
2023-04-22T14:25:03.208Z,96825.70
2023-04-22T14:27:31.087Z,96821.46
2023-04-22T14:29:59.213Z,96822.85
2023-04-22T14:32:27.964Z,96821.52
2023-04-22T14:34:56.127Z,96824.92
2023-04-22T14:37:24.111Z,96820.70
2023-04-22T14:39:52.401Z,96819.33
2023-04-22T14:42:20.564Z,96818.93
2023-04-22T14:44:48.434Z,96819.21
2023-04-22T14:47:16.308Z,96822.42
2023-04-22T14:49:44.494Z,96820.54
2023-04-22T14:52:12.722Z,96820.94
2023-04-22T14:54:40.844Z,96824.05
2023-04-22T14:57:08.717Z,96823.16
2023-04-22T14:59:36.579Z,96825.52
2023-04-22T15:02:05.733Z,96826.89
2023-04-22T15:04:34.237Z,96825.96
2023-04-22T15:07:02.970Z,96818.41
2023-04-22T15:09:30.952Z,96822.02
2023-04-22T15:12:00.149Z,96818.59
2023-04-22T15:14:28.218Z,96815.17
2023-04-22T15:16:56.205Z,96818.55
2023-04-22T15:19:24.273Z,96820.20
2023-04-22T15:21:52.144Z,96818.30
2023-04-22T15:24:25.543Z,96817.34
2023-04-22T15:26:54.277Z,96816.75
2023-04-22T15:29:23.958Z,96818.91
2023-04-22T15:31:54.450Z,96819.67
2023-04-22T15:34:23.994Z,96821.14
2023-04-22T15:36:52.065Z,96823.64
2023-04-22T15:39:20.349Z,96821.98
2023-04-22T15:41:48.260Z,96826.50
2023-04-22T15:44:17.035Z,96821.66
2023-04-22T15:46:45.750Z,96826.48
2023-04-22T15:49:15.013Z,96823.54
2023-04-22T15:51:43.390Z,96823.98
2023-04-22T15:54:12.446Z,96824.21
2023-04-22T15:56:40.672Z,96827.98
2023-04-22T15:59:08.649Z,96827.95
2023-04-22T16:01:38.646Z,96832.65
2023-04-22T16:04:08.133Z,96833.52
2023-04-22T16:06:37.683Z,96830.52
2023-04-22T16:09:05.660Z,96831.27
2023-04-22T16:11:33.632Z,96831.27
2023-04-22T16:14:01.833Z,96835.55
2023-04-22T16:16:30.115Z,96835.05
2023-04-22T16:18:59.410Z,96833.62
2023-04-22T16:21:28.837Z,96834.28
2023-04-22T16:23:58.317Z,96835.58
2023-04-22T16:26:26.271Z,96836.39
2023-04-22T16:28:55.212Z,96835.65
2023-04-22T16:31:23.396Z,96835.55
2023-04-22T16:33:51.747Z,96839.27
2023-04-22T16:36:19.538Z,96839.13
2023-04-22T16:38:47.336Z,96840.41
2023-04-22T16:41:15.472Z,96840.88
2023-04-22T16:43:43.323Z,96839.52
2023-04-22T16:46:11.420Z,96835.21
2023-04-22T16:48:39.809Z,96836.91
2023-04-22T16:51:07.877Z,96838.33
2023-04-22T16:53:36.173Z,96837.36
2023-04-22T16:56:04.453Z,96840.24
2023-04-22T16:58:32.302Z,96840.91
2023-04-22T17:01:00.488Z,96841.98
2023-04-22T17:03:28.815Z,96841.98
2023-04-22T17:05:56.953Z,96844.91
2023-04-22T17:08:24.779Z,96848.43
2023-04-22T17:10:52.791Z,96846.73
2023-04-22T17:13:20.953Z,96851.04
2023-04-22T17:15:48.998Z,96851.81
2023-04-22T17:18:16.892Z,96851.64
2023-04-22T17:20:44.663Z,96853.34
2023-04-22T17:23:15.428Z,96853.36
2023-04-22T17:25:43.238Z,96856.02
2023-04-22T17:28:11.689Z,96859.16
2023-04-22T17:30:39.555Z,96859.63
2023-04-22T17:33:07.740Z,96866.14
2023-04-22T17:35:35.496Z,96869.95
2023-04-22T17:38:03.482Z,96872.77
2023-04-22T17:40:31.867Z,96879.42
2023-04-22T17:43:00.042Z,96881.23
2023-04-22T17:45:28.030Z,96881.91
2023-04-22T17:47:56.053Z,96885.33
2023-04-22T17:50:23.992Z,96886.27
2023-04-22T17:52:51.925Z,96889.76
2023-04-22T17:55:19.780Z,96893.32
2023-04-22T17:57:47.684Z,96891.76
2023-04-22T18:00:16.952Z,96895.52
2023-04-22T18:02:45.070Z,96898.77
2023-04-22T18:05:13.260Z,96897.56
2023-04-22T18:07:41.102Z,96903.13
2023-04-22T18:10:09.528Z,96906.05
2023-04-22T18:12:37.487Z,96904.67
2023-04-22T18:15:06.070Z,96909.69
2023-04-22T18:17:34.094Z,96914.24
2023-04-22T18:20:16.891Z,96918.79
2023-04-22T18:22:49.837Z,96919.23
2023-04-22T18:25:18.029Z,96923.84
2023-04-22T18:27:46.308Z,96926.77
2023-04-22T18:30:14.275Z,96930.92
2023-04-22T18:32:42.414Z,96935.17
2023-04-22T18:35:10.535Z,96934.52
2023-04-22T18:37:38.631Z,96939.40
2023-04-22T18:40:07.212Z,96938.98
2023-04-22T18:42:35.607Z,96941.27
2023-04-22T18:45:05.018Z,96940.48
2023-04-22T18:47:33.438Z,96941.95
2023-04-22T18:50:01.550Z,96941.40
2023-04-22T18:52:29.626Z,96942.18
2023-04-22T18:54:57.702Z,96944.81
2023-04-22T18:57:25.890Z,96943.77
2023-04-22T18:59:55.013Z,96945.43
2023-04-22T19:02:23.296Z,96947.58
2023-04-22T19:04:53.893Z,96951.88
2023-04-22T19:07:21.876Z,96950.64
2023-04-22T19:09:49.846Z,96952.45
2023-04-22T19:12:19.685Z,96948.65
2023-04-22T19:14:48.086Z,96945.42
2023-04-22T19:17:16.042Z,96945.60
2023-04-22T19:19:45.405Z,96944.81
2023-04-22T19:22:13.804Z,96949.66
2023-04-22T19:24:42.294Z,96948.44
2023-04-22T19:27:12.687Z,96950.05
2023-04-22T19:29:42.057Z,96949.59
2023-04-22T19:32:11.731Z,96953.08
2023-04-22T19:34:39.737Z,96948.94
2023-04-22T19:37:08.284Z,96951.56
2023-04-22T19:39:36.738Z,96954.83
2023-04-22T19:42:05.191Z,96952.77
2023-04-22T19:44:33.252Z,96955.95
2023-04-22T19:47:01.386Z,96957.05
2023-04-22T19:49:31.447Z,96956.88
2023-04-22T19:52:01.737Z,96957.77
2023-04-22T19:54:29.766Z,96956.70
2023-04-22T19:56:58.637Z,96958.16
2023-04-22T19:59:31.010Z,96962.13
2023-04-22T20:01:59.276Z,96955.72
2023-04-22T20:04:27.821Z,96961.27
2023-04-22T20:06:57.232Z,96963.85
2023-04-22T20:09:26.581Z,96963.38
2023-04-22T20:11:55.186Z,96963.36
2023-04-22T20:14:23.778Z,96965.11
2023-04-22T20:16:51.818Z,96967.77
2023-04-22T20:19:20.235Z,96971.08
2023-04-22T20:21:48.930Z,96972.52
2023-04-22T20:24:19.948Z,96976.32
2023-04-22T20:26:48.879Z,96976.11
2023-04-22T20:29:18.079Z,96972.96
2023-04-22T20:31:46.909Z,96970.63
2023-04-22T20:34:14.998Z,96972.16
2023-04-22T20:36:43.225Z,96972.64
2023-04-22T20:39:14.299Z,96972.20
2023-04-22T20:41:43.373Z,96975.62
2023-04-22T20:44:11.648Z,96975.84
2023-04-22T20:46:39.524Z,96972.92
2023-04-22T20:49:08.205Z,96973.12
2023-04-22T20:51:36.273Z,96974.89
2023-04-22T20:54:06.189Z,96973.39
2023-04-22T20:56:38.279Z,96975.85
2023-04-22T20:59:06.204Z,96974.98
2023-04-22T21:01:34.665Z,96973.13
2023-04-22T21:04:03.510Z,96970.05
2023-04-22T21:06:34.569Z,96971.66
2023-04-22T21:09:03.477Z,96974.19
2023-04-22T21:11:31.755Z,96974.17
2023-04-22T21:13:59.835Z,96974.95
2023-04-22T21:16:30.606Z,96972.77
2023-04-22T21:18:59.458Z,96972.34
2023-04-22T21:21:30.817Z,96974.80
2023-04-22T21:24:00.314Z,96978.46
2023-04-22T21:26:29.758Z,96981.36
2023-04-22T21:28:58.224Z,96982.65
2023-04-22T21:31:27.232Z,96986.63
2023-04-22T21:33:55.794Z,96987.01
2023-04-22T21:36:25.134Z,96992.00
2023-04-22T21:38:53.009Z,96991.64
2023-04-22T21:41:20.938Z,96991.94
2023-04-22T21:43:48.914Z,96988.22
2023-04-22T21:46:17.121Z,96989.50
2023-04-22T21:48:45.279Z,96991.38
2023-04-22T21:51:13.248Z,96992.20
2023-04-22T21:53:41.242Z,96993.34
2023-04-22T21:56:09.184Z,96998.09
2023-04-22T21:58:37.180Z,97001.27
2023-04-22T22:01:05.001Z,97003.26
2023-04-22T22:03:33.330Z,96999.41
2023-04-22T22:06:01.819Z,97001.06
2023-04-22T22:08:30.682Z,96999.52
2023-04-22T22:10:59.755Z,97000.04
2023-04-22T22:13:27.741Z,97002.52
2023-04-22T22:15:57.311Z,97001.65
2023-04-22T22:18:25.559Z,97004.73
2023-04-22T22:20:54.070Z,97004.66
2023-04-22T22:23:22.031Z,97008.39
2023-04-22T22:25:50.002Z,97009.52
2023-04-22T22:28:17.995Z,97009.59
2023-04-22T22:30:45.851Z,97005.27
2023-04-22T22:33:13.909Z,97001.51
2023-04-22T22:35:41.915Z,97001.36
2023-04-22T22:38:09.994Z,97003.67
2023-04-22T22:40:37.954Z,97001.85
2023-04-22T22:43:05.927Z,96994.86
2023-04-22T22:45:33.906Z,96999.55
2023-04-22T22:48:01.949Z,97004.11
2023-04-22T22:50:29.961Z,97005.45
2023-04-22T22:52:58.139Z,97004.02
2023-04-22T22:55:26.313Z,97001.56
2023-04-22T22:57:54.198Z,97002.26
2023-04-22T23:00:22.357Z,96999.45
2023-04-22T23:02:51.660Z,96998.15
2023-04-22T23:05:19.950Z,96997.19
2023-04-22T23:07:47.818Z,96993.38
2023-04-22T23:10:16.003Z,96993.27
2023-04-22T23:12:43.880Z,96993.89
2023-04-22T23:15:12.052Z,96988.16
2023-04-22T23:17:40.055Z,96990.81
2023-04-22T23:20:10.063Z,96988.65
2023-04-22T23:22:39.766Z,96988.94
2023-04-22T23:25:08.873Z,96988.21
2023-04-22T23:27:37.045Z,96985.52
2023-04-22T23:30:05.554Z,96985.02
2023-04-22T23:32:35.492Z,96987.90
2023-04-22T23:35:04.030Z,96988.53
2023-04-22T23:37:33.644Z,96991.06
2023-04-22T23:40:02.029Z,96989.16
2023-04-22T23:42:30.723Z,96989.83
2023-04-22T23:44:58.607Z,96994.32
2023-04-22T23:47:26.799Z,96996.15
2023-04-22T23:49:55.970Z,96997.38
2023-04-22T23:52:23.952Z,96990.49
2023-04-22T23:54:52.335Z,96989.42
2023-04-22T23:57:20.710Z,96988.79
2023-04-22T23:59:48.996Z,96990.55
